Time;durP1;ratioP1;P1;durP2;ratioP2;P2;SDS_P1;SDS_P2;PMS_P1;PMS_P2;Temp;Humidity;BMP_temperature;BMP_pressure;BME280_temperature;BME280_humidity;BME280_pressure;Samples;Min_cycle;Max_cycle;Signal;HPM_P1;HPM_P2
2023/02/19 00:01:34;;;;;;;;;;;;;;;29.70;19.36;100700.81;5076646;28;1242;-18
2023/02/19 00:04:13;;;;;;;;;;;;;;;29.12;19.80;100711.91;5075383;28;999;-18
2023/02/19 00:06:38;;;;;;;;;;;;;;;29.32;19.85;100701.22;5066493;28;931;-18
2023/02/19 00:09:03;;;;;;;;;;;;;;;29.46;19.81;100692.13;5073162;28;1024;-18
2023/02/19 00:11:30;;;;;;;;;;;;;;;29.62;19.55;100701.00;5066712;28;1214;-18
2023/02/19 00:13:56;;;;;;;;;;;;;;;29.70;19.72;100697.25;5063198;28;1052;-18
2023/02/19 00:16:25;;;;;;;;;;;;;;;29.24;19.86;100680.56;5076316;28;1898;-18
2023/02/19 00:18:50;;;;;;;;;;;;;;;29.42;19.96;100677.31;5075477;28;1075;-18
2023/02/19 00:21:16;;;;;;;;;;;;;;;29.78;19.53;100682.72;5065836;28;1171;-18
2023/02/19 00:23:41;;;;;;;;;;;;;;;29.57;19.65;100679.03;5069927;28;1119;-19
2023/02/19 00:26:10;;;;;;;;;;;;;;;29.13;20.06;100684.63;5066262;28;1032;-18
2023/02/19 00:28:35;;;;;;;;;;;;;;;29.22;20.12;100677.19;5062385;28;1051;-18
2023/02/19 00:31:07;;;;;;;;;;;;;;;29.58;19.98;100664.44;5065640;28;896;-18
2023/02/19 00:33:32;;;;;;;;;;;;;;;29.85;19.51;100652.88;5069723;28;1036;-18
2023/02/19 00:36:01;;;;;;;;;;;;;;;30.02;19.43;100648.78;5067175;28;1947;-18
2023/02/19 00:38:26;;;;;;;;;;;;;;;29.51;19.66;100652.75;5076220;28;1008;-18
2023/02/19 00:40:51;;;;;;;;;;;;;;;29.25;19.94;100640.72;5064643;28;1131;-18
2023/02/19 00:43:17;;;;;;;;;;;;;;;29.47;19.88;100649.59;5060995;28;1153;-19
2023/02/19 00:45:42;;;;;;;;;;;;;;;29.65;19.75;100640.09;5065296;28;1012;-18
2023/02/19 00:48:07;;;;;;;;;;;;;;;29.91;19.63;100642.06;5069302;28;1136;-18
2023/02/19 00:50:33;;;;;;;;;;;;;;;29.31;20.07;100629.13;5067199;28;1210;-18
2023/02/19 00:52:58;;;;;;;;;;;;;;;29.45;20.16;100624.56;5062649;28;1123;-18
2023/02/19 00:55:23;;;;;;;;;;;;;;;29.85;19.54;100609.50;5075520;28;1269;-17
2023/02/19 00:57:49;;;;;;;;;;;;;;;29.96;19.61;100616.22;5062438;28;1906;-18
2023/02/19 01:00:14;;;;;;;;;;;;;;;29.42;19.87;100606.00;5075526;28;1098;-18
2023/02/19 01:02:39;;;;;;;;;;;;;;;29.23;20.42;100608.44;5071892;28;1075;-18
2023/02/19 01:05:05;;;;;;;;;;;;;;;29.62;19.74;100602.56;5056302;28;1020;-18
2023/02/19 01:07:30;;;;;;;;;;;;;;;29.91;19.61;100608.69;5060149;28;1063;-18
2023/02/19 01:09:55;;;;;;;;;;;;;;;30.05;19.40;100607.69;5065763;28;1208;-19
2023/02/19 01:12:23;;;;;;;;;;;;;;;29.42;19.83;100590.59;5072395;28;1027;-18
2023/02/19 01:14:48;;;;;;;;;;;;;;;29.19;20.10;100599.91;5076018;28;1261;-18
2023/02/19 01:17:13;;;;;;;;;;;;;;;29.76;19.81;100601.56;5075108;28;1972;-19
2023/02/19 01:19:39;;;;;;;;;;;;;;;30.03;19.50;100600.81;5075374;28;866;-18
2023/02/19 01:22:04;;;;;;;;;;;;;;;29.18;20.23;100602.78;5071752;28;1028;-18
2023/02/19 01:24:29;;;;;;;;;;;;;;;29.48;20.33;100594.34;5066569;28;1048;-18
2023/02/19 01:26:55;;;;;;;;;;;;;;;29.51;19.98;100563.31;5059191;28;969;-18
2023/02/19 01:29:20;;;;;;;;;;;;;;;29.76;19.69;100590.72;5065933;28;1184;-18
2023/02/19 01:31:45;;;;;;;;;;;;;;;29.61;19.95;100598.19;5061479;28;905;-18
2023/02/19 01:34:11;;;;;;;;;;;;;;;29.25;20.13;100589.25;5075438;28;1035;-18
2023/02/19 01:36:37;;;;;;;;;;;;;;;29.55;20.09;100588.97;5062207;28;1959;-18
2023/02/19 01:39:03;;;;;;;;;;;;;;;29.90;19.85;100588.03;5067315;28;1087;-18
2023/02/19 01:41:29;;;;;;;;;;;;;;;29.75;19.66;100590.91;5059206;28;1047;-18
2023/02/19 01:43:55;;;;;;;;;;;;;;;29.43;19.68;100575.16;5069239;28;946;-18
2023/02/19 01:46:20;;;;;;;;;;;;;;;29.53;20.13;100569.38;5061322;28;1020;-19
2023/02/19 01:48:46;;;;;;;;;;;;;;;29.87;19.62;100567.59;5051814;28;1270;-18
2023/02/19 01:51:15;;;;;;;;;;;;;;;29.85;19.73;100566.13;5072740;28;1095;-18
2023/02/19 01:53:41;;;;;;;;;;;;;;;30.11;19.48;100559.06;5051220;28;1355;-18
2023/02/19 01:56:06;;;;;;;;;;;;;;;29.62;19.78;100557.34;5065166;28;1959;-19
2023/02/19 01:58:32;;;;;;;;;;;;;;;29.43;20.00;100553.47;5079078;28;1129;-19
2023/02/19 02:00:58;;;;;;;;;;;;;;;29.75;20.05;100556.53;5060867;28;1044;-18
2023/02/19 02:03:23;;;;;;;;;;;;;;;29.93;19.69;100558.63;5078691;28;1085;-19
2023/02/19 02:05:55;;;;;;;;;;;;;;;29.50;19.98;100554.34;5078946;28;1068;-18
2023/02/19 02:11:04;;;;;;;;;;;;;;;29.74;19.95;100548.59;5065048;28;1222;-18
2023/02/19 02:13:29;;;;;;;;;;;;;;;29.84;19.98;100537.34;5079012;28;1060;-18
2023/02/19 02:15:58;;;;;;;;;;;;;;;29.63;19.91;100544.63;5060667;28;1139;-18
2023/02/19 02:18:38;;;;;;;;;;;;;;;29.36;20.30;100549.94;5078420;28;1976;-19
2023/02/19 02:21:21;;;;;;;;;;;;;;;29.70;20.14;100549.00;5066863;28;1147;-19
2023/02/19 02:23:47;;;;;;;;;;;;;;;29.55;20.31;100548.31;5074424;28;1078;-18
2023/02/19 02:26:12;;;;;;;;;;;;;;;29.25;20.20;100543.22;5069024;28;1195;-18
2023/02/19 02:28:59;;;;;;;;;;;;;;;29.51;20.49;100549.78;5078491;28;1143;-18
2023/02/19 02:31:26;;;;;;;;;;;;;;;29.99;19.95;100556.13;5060582;28;1043;-19
2023/02/19 02:34:03;;;;;;;;;;;;;;;29.54;19.92;100558.34;5046966;28;1156;-18
2023/02/19 02:36:30;;;;;;;;;;;;;;;29.27;20.55;100549.28;5047601;28;2296;-18
2023/02/19 02:38:55;;;;;;;;;;;;;;;29.65;20.22;100548.78;5052375;28;1120;-18
2023/02/19 02:41:21;;;;;;;;;;;;;;;29.96;19.93;100554.69;5053942;28;1429;-18
2023/02/19 02:43:46;;;;;;;;;;;;;;;29.67;19.90;100552.13;5048994;28;892;-19
2023/02/19 02:46:11;;;;;;;;;;;;;;;29.34;19.95;100547.44;5077559;28;1023;-18
2023/02/19 02:48:37;;;;;;;;;;;;;;;29.57;20.45;100546.25;5070010;28;1144;-18
2023/02/19 02:51:12;;;;;;;;;;;;;;;29.85;19.99;100541.72;5072484;28;1124;-19
2023/02/19 02:56:24;;;;;;;;;;;;;;;29.90;19.86;100556.34;5048860;28;1901;-18
2023/02/19 02:58:50;;;;;;;;;;;;;;;29.41;20.20;100556.41;5078498;28;1142;-19
2023/02/19 03:04:02;;;;;;;;;;;;;;;29.97;19.96;100560.94;5042598;28;1009;-18
2023/02/19 03:06:28;;;;;;;;;;;;;;;29.54;20.20;100563.75;5066266;28;1194;-19
2023/02/19 03:09:12;;;;;;;;;;;;;;;29.21;20.35;100575.31;5058332;28;941;-19
2023/02/19 03:20:02;;;;;;;;;;;;;;;29.28;20.34;100565.31;5061877;28;1041;-18
2023/02/19 03:22:32;;;;;;;;;;;;;;;29.76;20.15;100566.31;5059763;28;1111;-18
2023/02/19 03:27:47;;;;;;;;;;;;;;;29.43;20.07;100559.75;5042435;28;1045;-19
2023/02/19 03:30:17;;;;;;;;;;;;;;;29.42;20.57;100563.50;5056325;28;1111;-18
2023/02/19 03:32:57;;;;;;;;;;;;;;;29.91;20.14;100576.97;5048916;28;954;-19
2023/02/19 03:35:23;;;;;;;;;;;;;;;30.27;19.66;100574.13;5070785;28;1156;-18
2023/02/19 03:38:07;;;;;;;;;;;;;;;29.81;19.86;100579.28;5039723;28;1945;-19
2023/02/19 03:40:33;;;;;;;;;;;;;;;29.34;20.20;100577.22;5065354;28;1048;-19
2023/02/19 03:43:11;;;;;;;;;;;;;;;29.73;20.21;100574.03;5046315;28;1168;-18
2023/02/19 03:45:45;;;;;;;;;;;;;;;30.00;19.92;100580.34;5076955;28;1050;-19
2023/02/19 03:48:19;;;;;;;;;;;;;;;30.06;20.01;100582.22;5072197;28;1040;-18
2023/02/19 03:50:47;;;;;;;;;;;;;;;29.45;20.17;100579.34;5057219;28;1446;-19
2023/02/19 03:53:15;;;;;;;;;;;;;;;29.49;20.54;100579.78;5057329;28;1126;-19
2023/02/19 03:55:46;;;;;;;;;;;;;;;29.92;20.08;100577.81;5056572;28;1307;-18
2023/02/19 03:58:30;;;;;;;;;;;;;;;30.05;19.95;100585.13;5059148;28;1914;-19
2023/02/19 04:00:57;;;;;;;;;;;;;;;30.04;19.63;100572.63;5058293;28;1150;-19
2023/02/19 04:03:22;;;;;;;;;;;;;;;29.41;20.25;100577.25;5058657;28;1064;-18
2023/02/19 04:05:48;;;;;;;;;;;;;;;29.53;20.49;100567.50;5074381;28;1127;-18
2023/02/19 04:08:15;;;;;;;;;;;;;;;29.97;20.05;100571.78;5065618;28;932;-19
2023/02/19 04:10:40;;;;;;;;;;;;;;;30.16;19.76;100572.84;5058255;28;1103;-18
2023/02/19 04:13:07;;;;;;;;;;;;;;;29.92;19.94;100588.66;5049315;28;1108;-18
2023/02/19 04:15:33;;;;;;;;;;;;;;;29.36;20.54;100602.25;5054996;28;1282;-18
2023/02/19 04:17:59;;;;;;;;;;;;;;;27.35;18.57;100611.91;5076102;28;1898;-19
2023/02/19 04:20:26;;;;;;;;;;;;;;;25.92;19.53;100614.19;5052687;28;1135;-19
2023/02/19 04:22:51;;;;;;;;;;;;;;;25.17;20.47;100601.03;5052727;28;2618;-19
2023/02/19 04:25:16;;;;;;;;;;;;;;;25.25;20.24;100592.09;5068100;28;1828;-19
2023/02/19 04:27:42;;;;;;;;;;;;;;;25.29;20.21;100591.56;5057157;28;1729;-19
2023/02/19 04:30:09;;;;;;;;;;;;;;;24.74;22.25;100596.72;5041292;28;1884;-19
2023/02/19 04:32:34;;;;;;;;;;;;;;;24.57;22.06;100604.81;5050499;28;1786;-19
2023/02/19 04:35:00;;;;;;;;;;;;;;;24.60;21.96;100610.88;5070256;28;2083;-19
2023/02/19 04:37:25;;;;;;;;;;;;;;;25.02;21.52;100595.53;5069528;28;2165;-20
2023/02/19 04:39:50;;;;;;;;;;;;;;;24.66;21.38;100602.97;5071624;28;1079;-20
2023/02/19 04:42:16;;;;;;;;;;;;;;;24.21;20.62;100591.72;5066620;28;1127;-19
2023/02/19 04:44:41;;;;;;;;;;;;;;;23.55;22.42;100593.25;5067785;28;1029;-18
2023/02/19 04:47:06;;;;;;;;;;;;;;;25.71;20.23;100590.56;5055881;28;1117;-19
2023/02/19 04:49:31;;;;;;;;;;;;;;;26.23;20.07;100590.88;5068657;28;1055;-19
2023/02/19 04:51:57;;;;;;;;;;;;;;;25.99;20.35;100601.66;5063679;28;1040;-19
2023/02/19 04:54:22;;;;;;;;;;;;;;;26.14;20.68;100606.28;5067244;28;1064;-20
2023/02/19 04:56:49;;;;;;;;;;;;;;;27.17;19.80;100615.00;5062772;28;1989;-19
2023/02/19 04:59:15;;;;;;;;;;;;;;;27.27;19.51;100626.34;5074321;28;1148;-20
2023/02/19 05:01:40;;;;;;;;;;;;;;;26.65;19.03;100630.00;5062716;28;1167;-17
2023/02/19 05:04:05;;;;;;;;;;;;;;;25.99;20.27;100636.69;5074571;28;1096;-20
2023/02/19 05:06:31;;;;;;;;;;;;;;;25.91;20.63;100642.97;5075619;28;976;-20
2023/02/19 05:08:56;;;;;;;;;;;;;;;26.64;19.96;100649.88;5055281;28;2031;-20
2023/02/19 05:11:22;;;;;;;;;;;;;;;27.14;19.50;100660.25;5068348;28;1077;-20
2023/02/19 05:13:47;;;;;;;;;;;;;;;27.22;19.13;100666.59;5064705;28;1088;-20
2023/02/19 05:16:14;;;;;;;;;;;;;;;27.37;19.26;100672.84;5066753;28;1957;-20
2023/02/19 05:18:40;;;;;;;;;;;;;;;26.58;19.70;100679.47;5065343;28;1047;-20
2023/02/19 05:21:05;;;;;;;;;;;;;;;26.11;20.71;100687.53;5079196;28;1039;-20
2023/02/19 05:23:30;;;;;;;;;;;;;;;26.58;19.95;100684.84;5072887;28;1031;-19
2023/02/19 05:25:56;;;;;;;;;;;;;;;26.95;19.62;100694.00;5072154;28;1009;-20
2023/02/19 05:28:27;;;;;;;;;;;;;;;26.26;20.69;100691.13;5068290;28;1543;-20
2023/02/19 05:30:52;;;;;;;;;;;;;;;26.06;21.03;100695.31;5061810;28;1020;-21
2023/02/19 05:33:18;;;;;;;;;;;;;;;26.18;20.72;100710.03;5065519;28;1035;-19
2023/02/19 05:35:47;;;;;;;;;;;;;;;27.24;19.50;100713.97;5064208;28;987;-19
2023/02/19 05:38:12;;;;;;;;;;;;;;;27.14;19.92;100726.91;5078628;28;1958;-19
2023/02/19 05:40:38;;;;;;;;;;;;;;;26.70;19.90;100726.59;5060263;28;1135;-20
2023/02/19 05:43:03;;;;;;;;;;;;;;;26.73;20.15;100722.69;5058292;28;1032;-20
2023/02/19 05:45:28;;;;;;;;;;;;;;;26.60;20.14;100726.84;5060292;28;852;-19
2023/02/19 05:47:54;;;;;;;;;;;;;;;26.62;20.31;100732.03;5072433;28;1096;-19
2023/02/19 05:50:19;;;;;;;;;;;;;;;26.50;20.82;100737.88;5065144;28;1127;-17
2023/02/19 05:52:45;;;;;;;;;;;;;;;26.26;20.76;100736.97;5066256;28;1087;-20
2023/02/19 05:55:10;;;;;;;;;;;;;;;26.29;21.00;100749.25;5073562;28;1110;-20
2023/02/19 05:57:42;;;;;;;;;;;;;;;27.01;19.89;100749.09;5060352;28;1988;-19
2023/02/19 06:00:17;;;;;;;;;;;;;;;26.63;20.78;100750.75;5073769;28;1073;-20
2023/02/19 06:02:42;;;;;;;;;;;;;;;26.62;20.57;100757.19;5065126;28;985;-20
2023/02/19 06:05:08;;;;;;;;;;;;;;;26.35;21.02;100753.13;5071015;28;1072;-20
2023/02/19 06:07:33;;;;;;;;;;;;;;;27.01;20.23;100766.16;5070184;28;2054;-19
2023/02/19 06:09:58;;;;;;;;;;;;;;;26.32;20.90;100751.59;5077488;28;1017;-19
2023/02/19 06:12:24;;;;;;;;;;;;;;;26.40;21.11;100775.88;5074535;28;1108;-20
2023/02/19 06:14:49;;;;;;;;;;;;;;;26.22;21.42;100786.03;5062776;28;1391;-19
2023/02/19 06:17:14;;;;;;;;;;;;;;;26.32;21.10;100789.34;5058891;28;1918;-19
2023/02/19 06:19:40;;;;;;;;;;;;;;;26.40;21.08;100751.59;5057890;28;1057;-20
2023/02/19 06:22:05;;;;;;;;;;;;;;;26.59;21.14;100781.78;5059614;28;1235;-20
2023/02/19 06:24:30;;;;;;;;;;;;;;;26.33;21.37;100772.19;5061777;28;1282;-19
2023/02/19 06:26:56;;;;;;;;;;;;;;;26.47;21.12;100777.84;5060748;28;1286;-19
2023/02/19 06:29:21;;;;;;;;;;;;;;;26.86;20.81;100782.28;5076822;28;1215;-19
2023/02/19 06:31:46;;;;;;;;;;;;;;;26.81;20.69;100778.47;5076468;28;1211;-19
2023/02/19 06:34:13;;;;;;;;;;;;;;;26.89;20.82;100791.91;5060181;28;1357;-20
2023/02/19 06:36:38;;;;;;;;;;;;;;;26.51;21.06;100785.38;5065674;28;1959;-19
2023/02/19 06:39:03;;;;;;;;;;;;;;;26.59;21.13;100795.28;5077754;28;2034;-19
2023/02/19 06:41:29;;;;;;;;;;;;;;;26.61;20.96;100800.53;5070202;28;1135;-19
2023/02/19 06:43:55;;;;;;;;;;;;;;;26.73;20.95;100793.69;5072037;28;1027;-19
2023/02/19 06:46:20;;;;;;;;;;;;;;;26.73;20.87;100788.28;5077364;28;882;-19
2023/02/19 06:48:46;;;;;;;;;;;;;;;26.59;21.30;100772.88;5076659;28;1039;-19
2023/02/19 06:51:12;;;;;;;;;;;;;;;26.67;21.26;100770.13;5065365;28;1469;-18
2023/02/19 06:53:37;;;;;;;;;;;;;;;26.60;21.15;100761.91;5077653;28;995;-19
2023/02/19 06:56:06;;;;;;;;;;;;;;;26.75;21.10;100759.28;5077216;28;1064;-19
2023/02/19 06:58:31;;;;;;;;;;;;;;;26.94;20.90;100775.16;5065192;28;1972;-19
2023/02/19 07:00:56;;;;;;;;;;;;;;;26.82;21.07;100780.13;5057823;28;1215;-19
2023/02/19 07:03:22;;;;;;;;;;;;;;;26.79;21.32;100773.25;5057241;28;1227;-19
2023/02/19 07:05:47;;;;;;;;;;;;;;;26.73;21.47;100790.13;5058438;28;1028;-19
2023/02/19 07:08:13;;;;;;;;;;;;;;;26.72;21.54;100786.63;5057845;28;2196;-18
2023/02/19 07:10:38;;;;;;;;;;;;;;;26.83;21.14;100784.50;5071463;28;881;-18
2023/02/19 07:13:03;;;;;;;;;;;;;;;26.79;21.29;100781.34;5070022;28;1286;-18
2023/02/19 07:15:29;;;;;;;;;;;;;;;26.76;21.15;100769.03;5076351;28;1299;-18
2023/02/19 07:17:54;;;;;;;;;;;;;;;26.60;21.51;100774.53;5074527;28;1906;-19
2023/02/19 07:20:19;;;;;;;;;;;;;;;26.54;21.34;100768.03;5067471;28;1035;-19
2023/02/19 07:22:45;;;;;;;;;;;;;;;26.46;21.54;100759.97;5060091;28;1066;-19
2023/02/19 07:25:10;;;;;;;;;;;;;;;26.57;21.28;100758.72;5076166;28;1367;-19
2023/02/19 07:27:36;;;;;;;;;;;;;;;26.27;21.74;100773.72;5068530;28;988;-19
2023/02/19 07:30:01;;;;;;;;;;;;;;;26.25;21.97;100777.59;5057096;28;1050;-19
2023/02/19 07:32:27;;;;;;;;;;;;;;;26.49;21.59;100779.31;5065669;28;1084;-19
2023/02/19 07:34:52;;;;;;;;;;;;;;;26.22;21.78;100791.44;5060092;28;1295;-19
2023/02/19 07:37:17;;;;;;;;;;;;;;;26.61;21.32;100781.66;5062409;28;1898;-19
2023/02/19 07:39:43;;;;;;;;;;;;;;;26.57;21.55;100797.34;5074053;28;1494;-18
2023/02/19 07:42:08;;;;;;;;;;;;;;;26.23;22.06;100793.09;5069593;28;1027;-19
2023/02/19 07:44:33;;;;;;;;;;;;;;;26.15;21.94;100783.19;5070043;28;1128;-19
2023/02/19 07:46:59;;;;;;;;;;;;;;;26.17;21.94;100781.19;5075968;28;881;-19
2023/02/19 07:49:24;;;;;;;;;;;;;;;26.19;21.95;100786.38;5074512;28;1226;-19
2023/02/19 07:51:49;;;;;;;;;;;;;;;26.07;22.26;100786.78;5056104;28;1251;-19
2023/02/19 07:54:14;;;;;;;;;;;;;;;26.26;21.80;100796.28;5069617;28;1147;-19
2023/02/19 07:56:40;;;;;;;;;;;;;;;26.24;21.75;100786.69;5066266;28;1910;-19
2023/02/19 07:59:05;;;;;;;;;;;;;;;26.23;21.64;100793.94;5073047;28;923;-19
2023/02/19 08:04:14;;;;;;;;;;;;;;;26.24;21.62;100790.22;5070633;28;1419;-18
2023/02/19 08:06:39;;;;;;;;;;;;;;;26.32;21.56;100777.72;5075299;28;1304;-19
2023/02/19 08:09:05;;;;;;;;;;;;;;;26.61;21.33;100771.66;5066581;28;1763;-19
2023/02/19 08:14:14;;;;;;;;;;;;;;;26.41;21.58;100769.44;5075164;28;1122;-19
2023/02/19 08:16:39;;;;;;;;;;;;;;;26.43;21.75;100766.56;5075912;28;1953;-19
2023/02/19 08:19:05;;;;;;;;;;;;;;;26.50;21.86;100756.75;5054454;28;1230;-19
2023/02/19 08:21:30;;;;;;;;;;;;;;;26.63;21.15;100760.69;5075865;28;1182;-19
2023/02/19 08:23:55;;;;;;;;;;;;;;;26.71;21.34;100763.34;5075568;28;1066;-19
2023/02/19 08:26:20;;;;;;;;;;;;;;;26.37;21.71;100749.25;5072278;28;1261;-19
2023/02/19 08:28:46;;;;;;;;;;;;;;;26.59;21.69;100748.59;5075938;28;1124;-18
2023/02/19 08:31:12;;;;;;;;;;;;;;;26.56;21.40;100740.88;5075944;28;1039;-18
2023/02/19 08:33:37;;;;;;;;;;;;;;;26.51;21.54;100741.38;5062485;28;1036;-18
2023/02/19 08:36:03;;;;;;;;;;;;;;;26.87;21.33;100737.25;5075056;28;1023;-19
2023/02/19 08:38:29;;;;;;;;;;;;;;;26.86;21.30;100725.59;5070730;28;1992;-19
2023/02/19 08:40:54;;;;;;;;;;;;;;;27.00;21.17;100728.53;5072743;28;1261;-18
2023/02/19 08:43:19;;;;;;;;;;;;;;;26.96;21.22;100738.84;5070262;28;1425;-18
2023/02/19 08:45:46;;;;;;;;;;;;;;;26.97;21.02;100739.69;5065221;28;1485;-19
2023/02/19 08:48:11;;;;;;;;;;;;;;;27.01;20.87;100719.41;5069720;28;1305;-19
2023/02/19 08:50:37;;;;;;;;;;;;;;;26.99;20.95;100716.88;5067455;28;1059;-19
2023/02/19 08:53:02;;;;;;;;;;;;;;;27.18;20.68;100725.50;5074960;28;1036;-19
2023/02/19 08:55:27;;;;;;;;;;;;;;;27.20;20.94;100726.19;5070751;28;1119;-17
2023/02/19 08:57:54;;;;;;;;;;;;;;;27.35;20.46;100728.03;5070128;28;1906;-19
2023/02/19 09:00:20;;;;;;;;;;;;;;;27.25;20.83;100725.63;5065228;28;1055;-19
2023/02/19 09:02:45;;;;;;;;;;;;;;;27.22;20.86;100731.41;5062321;28;1100;-19
2023/02/19 09:05:11;;;;;;;;;;;;;;;27.30;20.53;100730.47;5067321;28;1339;-19
2023/02/19 09:07:36;;;;;;;;;;;;;;;27.31;20.82;100729.47;5061481;28;1813;-19
2023/02/19 09:10:01;;;;;;;;;;;;;;;27.34;20.68;100737.19;5070956;28;1407;-19
2023/02/19 09:12:27;;;;;;;;;;;;;;;27.40;20.91;100744.53;5075596;28;1051;-19
2023/02/19 09:14:52;;;;;;;;;;;;;;;27.42;20.39;100753.31;5075303;28;1332;-20
2023/02/19 09:17:17;;;;;;;;;;;;;;;27.43;20.70;100754.97;5075052;28;1977;-18
2023/02/19 09:19:43;;;;;;;;;;;;;;;27.43;20.62;100756.81;5074993;28;1304;-18
2023/02/19 09:22:08;;;;;;;;;;;;;;;27.47;20.36;100764.41;5075372;28;1043;-18
2023/02/19 09:24:33;;;;;;;;;;;;;;;27.60;20.61;100757.50;5063945;28;1167;-19
2023/02/19 09:26:58;;;;;;;;;;;;;;;27.72;20.40;100750.66;5072110;28;1147;-19
2023/02/19 09:29:24;;;;;;;;;;;;;;;27.62;20.61;100759.00;5065424;28;1206;-19
2023/02/19 09:31:49;;;;;;;;;;;;;;;27.59;20.57;100766.63;5073936;28;1300;-19
2023/02/19 09:34:15;;;;;;;;;;;;;;;27.69;20.38;100748.31;5069632;28;1289;-19
2023/02/19 09:36:40;;;;;;;;;;;;;;;27.51;20.75;100757.59;5069532;28;1951;-19
2023/02/19 09:39:06;;;;;;;;;;;;;;;27.31;20.98;100749.19;5065114;28;1871;-18
2023/02/19 09:41:35;;;;;;;;;;;;;;;27.53;20.60;100749.28;5062660;28;1028;-18
2023/02/19 09:44:01;;;;;;;;;;;;;;;27.60;20.33;100736.72;5057031;28;1333;-19
2023/02/19 09:46:30;;;;;;;;;;;;;;;27.61;20.50;100729.47;5068570;28;1381;-19
2023/02/19 09:48:58;;;;;;;;;;;;;;;27.31;20.65;100735.69;5068569;28;983;-18
2023/02/19 09:51:24;;;;;;;;;;;;;;;27.47;20.56;100750.03;5049394;28;962;-18
2023/02/19 09:53:49;;;;;;;;;;;;;;;27.67;20.36;100739.53;5051788;28;1225;-18
2023/02/19 09:56:15;;;;;;;;;;;;;;;27.47;20.78;100737.38;5056477;28;1230;-18
2023/02/19 09:58:46;;;;;;;;;;;;;;;27.65;20.42;100740.72;5062668;28;1902;-19
2023/02/19 10:01:11;;;;;;;;;;;;;;;27.69;20.60;100710.47;5047124;28;1044;-18
2023/02/19 10:03:39;;;;;;;;;;;;;;;27.75;20.25;100719.69;5059318;28;1020;-19
2023/02/19 10:06:12;;;;;;;;;;;;;;;27.75;20.43;100727.78;5059378;28;1024;-18
2023/02/19 10:08:38;;;;;;;;;;;;;;;27.95;20.08;100729.91;5062826;28;2171;-18
2023/02/19 10:11:03;;;;;;;;;;;;;;;27.83;20.46;100727.69;5062827;28;1507;-18
2023/02/19 10:13:35;;;;;;;;;;;;;;;27.79;20.35;100726.41;5071739;28;1201;-18
2023/02/19 10:16:01;;;;;;;;;;;;;;;27.73;20.46;100730.69;5073658;28;1135;-18
2023/02/19 10:18:27;;;;;;;;;;;;;;;26.97;21.01;100710.00;5057795;28;1951;-18
2023/02/19 10:20:53;;;;;;;;;;;;;;;26.85;21.55;100717.69;5073359;28;1339;-18
2023/02/19 10:23:18;;;;;;;;;;;;;;;26.98;21.17;100717.91;5065235;28;1029;-18
2023/02/19 10:25:48;;;;;;;;;;;;;;;27.32;20.80;100696.00;5051858;28;1008;-18
2023/02/19 10:28:14;;;;;;;;;;;;;;;27.21;21.28;100702.72;5050711;28;1114;-18
2023/02/19 10:30:39;;;;;;;;;;;;;;;27.04;21.39;100675.88;5064459;28;1245;-19
2023/02/19 10:33:11;;;;;;;;;;;;;;;27.12;21.39;100691.16;5067960;28;1131;-19
2023/02/19 10:35:38;;;;;;;;;;;;;;;27.13;21.18;100688.28;5061761;28;993;-19
2023/02/19 10:38:05;;;;;;;;;;;;;;;27.19;21.06;100684.00;5075074;28;1963;-18
2023/02/19 10:40:30;;;;;;;;;;;;;;;27.06;21.16;100670.31;5069765;28;975;-18
2023/02/19 10:42:57;;;;;;;;;;;;;;;26.99;21.18;100678.28;5071653;28;1210;-18
2023/02/19 10:45:33;;;;;;;;;;;;;;;27.02;21.22;100676.06;5046381;28;1083;-18
2023/02/19 10:47:58;;;;;;;;;;;;;;;26.97;21.57;100674.91;5075891;28;1261;-19
2023/02/19 10:50:28;;;;;;;;;;;;;;;26.84;21.71;100664.75;5077367;28;1185;-18
2023/02/19 10:52:54;;;;;;;;;;;;;;;26.97;21.50;100664.13;5057918;28;1397;-18
2023/02/19 10:55:23;;;;;;;;;;;;;;;26.95;21.16;100664.28;5073680;28;1317;-18
2023/02/19 10:57:49;;;;;;;;;;;;;;;26.98;21.12;100666.63;5066356;28;1901;-19
2023/02/19 11:00:14;;;;;;;;;;;;;;;27.06;21.09;100651.41;5058674;28;1111;-18
2023/02/19 11:02:40;;;;;;;;;;;;;;;27.01;21.38;100655.47;5074031;28;1348;-19
2023/02/19 11:05:08;;;;;;;;;;;;;;;26.99;21.23;100652.09;5063768;28;1285;-19
2023/02/19 11:07:37;;;;;;;;;;;;;;;26.66;21.61;100649.72;5065148;28;1899;-18
2023/02/19 11:10:03;;;;;;;;;;;;;;;26.51;21.64;100628.94;5039911;28;1208;-18
2023/02/19 11:12:35;;;;;;;;;;;;;;;26.90;21.52;100643.25;5068555;28;1040;-18
2023/02/19 11:15:02;;;;;;;;;;;;;;;26.94;21.61;100648.28;5054155;28;1270;-18
2023/02/19 11:17:27;;;;;;;;;;;;;;;27.18;21.12;100646.34;5049367;28;1963;-19
2023/02/19 11:20:06;;;;;;;;;;;;;;;26.96;21.29;100652.47;5055113;28;1112;-19
2023/02/19 11:22:32;;;;;;;;;;;;;;;27.30;20.81;100642.19;5074469;28;1277;-18
2023/02/19 11:25:14;;;;;;;;;;;;;;;27.17;21.33;100642.84;5074047;28;1595;-19
2023/02/19 11:27:58;;;;;;;;;;;;;;;27.07;21.27;100634.16;5040796;28;1436;-19
2023/02/19 11:30:29;;;;;;;;;;;;;;;27.00;21.50;100634.88;5075273;28;1100;-18
2023/02/19 11:32:54;;;;;;;;;;;;;;;26.97;21.24;100629.00;5077051;28;1055;-18
2023/02/19 11:35:21;;;;;;;;;;;;;;;26.69;21.84;100632.34;5058652;28;1308;-18
2023/02/19 11:37:57;;;;;;;;;;;;;;;26.85;21.71;100631.31;5069502;28;1948;-19
2023/02/19 11:40:32;;;;;;;;;;;;;;;26.76;21.68;100633.25;5066108;28;1516;-19
2023/02/19 11:43:06;;;;;;;;;;;;;;;26.84;21.39;100641.28;5058674;28;1042;-19
2023/02/19 11:45:31;;;;;;;;;;;;;;;27.10;21.42;100644.59;5047705;28;1199;-18
2023/02/19 11:48:01;;;;;;;;;;;;;;;27.13;21.25;100628.03;5069701;28;1076;-19
2023/02/19 11:50:59;;;;;;;;;;;;;;;27.03;21.49;100617.50;5047601;28;1103;-19
2023/02/19 11:53:26;;;;;;;;;;;;;;;26.85;21.45;100615.13;5029794;28;1377;-18
2023/02/19 11:55:54;;;;;;;;;;;;;;;26.95;21.64;100610.31;5076374;28;1376;-19
2023/02/19 11:58:37;;;;;;;;;;;;;;;27.09;21.52;100611.34;5063090;28;1901;-18
2023/02/19 12:01:09;;;;;;;;;;;;;;;27.22;21.35;100602.63;5070069;28;1008;-19
2023/02/19 12:03:40;;;;;;;;;;;;;;;27.16;21.19;100595.25;5075656;28;1019;-19
2023/02/19 12:06:09;;;;;;;;;;;;;;;27.37;21.14;100582.84;5076041;28;1078;-18
2023/02/19 12:08:46;;;;;;;;;;;;;;;27.42;20.78;100577.72;5076050;28;2054;-18
2023/02/19 12:11:20;;;;;;;;;;;;;;;27.47;20.76;100572.59;5057463;28;1048;-19
2023/02/19 12:13:54;;;;;;;;;;;;;;;27.55;20.64;100584.28;5065396;28;1307;-18
2023/02/19 12:16:23;;;;;;;;;;;;;;;27.42;20.99;100588.53;5074708;28;1110;-19
2023/02/19 12:19:08;;;;;;;;;;;;;;;27.17;21.31;100588.84;5076068;28;1955;-20
2023/02/19 12:21:37;;;;;;;;;;;;;;;27.10;21.54;100580.66;5033450;28;1113;-18
2023/02/19 12:24:12;;;;;;;;;;;;;;;26.96;21.63;100581.47;5057476;28;1003;-19
2023/02/19 12:26:49;;;;;;;;;;;;;;;26.85;21.89;100566.56;5067029;28;1038;-18
2023/02/19 12:29:37;;;;;;;;;;;;;;;26.76;21.79;100566.66;5049330;28;1135;-18
2023/02/19 12:32:13;;;;;;;;;;;;;;;26.63;22.18;100567.28;5032175;28;1283;-18
2023/02/19 12:34:42;;;;;;;;;;;;;;;26.62;22.01;100564.78;5062390;28;1067;-18
2023/02/19 12:37:10;;;;;;;;;;;;;;;26.62;22.14;100562.06;5045289;28;1953;-19
2023/02/19 12:40:08;;;;;;;;;;;;;;;26.58;22.03;100566.16;5075650;28;2229;-18
2023/02/19 12:42:39;;;;;;;;;;;;;;;27.01;21.48;100573.63;5019594;28;1069;-19
2023/02/19 12:45:06;;;;;;;;;;;;;;;26.84;22.36;100579.19;5061495;28;1025;-18
2023/02/19 12:47:33;;;;;;;;;;;;;;;26.82;22.26;100567.78;5066873;28;1049;-19
2023/02/19 12:50:03;;;;;;;;;;;;;;;26.50;22.25;100567.09;5055710;28;1209;-19
2023/02/19 12:52:31;;;;;;;;;;;;;;;26.94;21.67;100559.22;5055425;28;1262;-18
2023/02/19 12:54:59;;;;;;;;;;;;;;;26.87;22.10;100556.41;5042535;28;1235;-19
2023/02/19 12:57:28;;;;;;;;;;;;;;;26.50;22.01;100549.03;5070183;28;1910;-18
2023/02/19 13:00:12;;;;;;;;;;;;;;;26.83;21.68;100563.19;5058290;28;1274;-18
2023/02/19 13:02:37;;;;;;;;;;;;;;;26.80;22.04;100552.78;5060481;28;1389;-18
2023/02/19 13:05:18;;;;;;;;;;;;;;;26.94;21.65;100551.13;5062564;28;1177;-19
2023/02/19 13:07:44;;;;;;;;;;;;;;;26.85;21.75;100551.22;5062156;28;1840;-18
2023/02/19 13:10:24;;;;;;;;;;;;;;;26.79;21.81;100546.56;5062141;28;1246;-18
2023/02/19 13:12:49;;;;;;;;;;;;;;;26.31;22.51;100555.75;5039063;28;1251;-18
2023/02/19 13:15:28;;;;;;;;;;;;;;;26.57;22.21;100542.91;5063302;28;1218;-18